KTYR - Tyler, Texas, USA
Distance from station: WNW 10mi, 17km
Updated: Mon, 27-Jun-2022 9:53am CDT
Clear
Clear
 Wind from ENE
Wind: ENE 14 mph , 22 km/h
Temperature: 84°F , 29°C
Heat Index: 88°F , 31°C
Dew Point: 70°F , 21°C
Humidity: 62%
Barometer: 30.17 inHg , 1021.7 hPa
Clouds: Clear
Visibility: 10 miles , 16 km
2022/06/27 14:53 KTYR 271453Z 06012KT 10SM CLR 29/21 A3017 RMK AO2 SLP207 T02940206 51010
KRFI - Henderson Rusk C, Texas, USA
Distance from station: ESE 25mi, 40km
Updated: Mon, 27-Jun-2022 9:55am CDT
Clear
Clear
 Wind from ENE
Wind: ENE 10 mph , 17 km/h
Temperature: 86°F , 30°C
Heat Index: 88°F , 31°C
Dew Point: 64°F , 18°C
Humidity: 49%
Barometer: 30.17 inHg , 1021.7 hPa
Clouds: Clear
Visibility: 10 miles , 16 km
2022/06/27 14:55 KRFI 271455Z AUTO 06009KT 10SM CLR 30/18 A3017 RMK AO2 T02990178
 
KJSO - Jacksonville, Texas, USA
Distance from station: S 30mi, 48km
Updated: Mon, 27-Jun-2022 9:55am CDT
Clear
Clear
 Wind from ENE
Wind: ENE 8 mph , 13 km/h
Temperature: 82°F , 28°C
Heat Index: 86°F , 30°C
Dew Point: 70°F , 21°C
Humidity: 66%
Barometer: 30.18 inHg , 1022 hPa
Clouds: Clear
Visibility: 10 miles , 16 km
2022/06/27 14:55 KJSO 271455Z AUTO 07007KT 040V100 10SM CLR 28/21 A3018 RMK AO2 T02780210 TSNO
KGGG - Longview, Texas, USA
Distance from station: ENE 31mi, 50km
Updated: Mon, 27-Jun-2022 9:53am CDT
Few Clouds
Few Clouds
 Wind from ENE
Wind: ENE 9 mph , 15 km/h, Gust: 20 mph , 31 km/h
Temperature: 84°F , 29°C
Heat Index: 89°F , 32°C
Dew Point: 72°F , 22°C
Humidity: 66%
Barometer: 30.16 inHg , 1021.3 hPa
Clouds: Few Clouds
Visibility: 10 miles , 16 km
Cloud details: Few Clouds 2400 ft
2022/06/27 14:53 KGGG 271453Z 06008G17KT 020V080 10SM FEW024 29/22 A3016 RMK AO2 SLP206 T02940217 50009
 
KJXI - Gilmer Muni, Texas, USA
Distance from station: NNE 33mi, 53km
Updated: Mon, 27-Jun-2022 9:55am CDT
Mostly Cloudy
Mostly Cloudy
 Wind from NE
Wind: NE 14 mph , 22 km/h, Gust: 18 mph , 30 km/h
Temperature: 81°F , 27°C
Heat Index: 84°F , 29°C
Dew Point: 68°F , 20°C
Humidity: 66%
Barometer: 30.20 inHg , 1022.7 hPa
Clouds: Mostly Cloudy
Visibility: 10 miles , 16 km
Cloud details: Mostly Cloudy 2000 ft
Mostly Cloudy 2600 ft
2022/06/27 14:55 KJXI 271455Z AUTO 05012G16KT 030V090 10SM BKN020 BKN026 27/20 A3020 RMK AO2 T02650203
KJDD - Mineola/Quitman, Texas, USA
Distance from station: NNW 35mi, 56km
Updated: Mon, 27-Jun-2022 9:55am CDT
Partly Cloudy
Partly Cloudy
 Wind from ENE
Wind: ENE 9 mph , 15 km/h
Temperature: 82°F , 28°C
Heat Index: 86°F , 30°C
Dew Point: 72°F , 22°C
Humidity: 70%
Barometer: 30.19 inHg , 1022.4 hPa
Clouds: Partly Cloudy
Cloud details: Partly Cloudy 2400 ft
2022/06/27 14:55 KJDD 271455Z AUTO 06008KT 020V090 SCT024 28/22 A3019 RMK AO2 PWINO
 
KF44 - Athens, Texas, USA
Distance from station: WSW 36mi, 57km
Updated: Mon, 27-Jun-2022 9:55am CDT
Clear
Clear
 Wind from NE
Wind: NE 10 mph , 17 km/h
Temperature: 82°F , 28°C
Heat Index: 85°F , 29°C
Dew Point: 68°F , 20°C
Humidity: 62%
Barometer: 30.15 inHg , 1021 hPa
Clouds: Clear
Visibility: 10 miles , 16 km
2022/06/27 14:55 KF44 271455Z AUTO 05009KT 020V090 10SM CLR 28/20 A3015 RMK AO2
KPSN - Palestine Muni, Texas, USA
Distance from station: SW 44mi, 71km
Updated: Mon, 27-Jun-2022 9:55am CDT
Clear
Clear
 
Temperature: 84°F , 29°C
Heat Index: 88°F , 31°C
Dew Point: 70°F , 21°C
Humidity: 62%
Barometer: 30.14 inHg , 1020.7 hPa
Clouds: Clear
Visibility: 10 miles , 16 km
2022/06/27 14:55 KPSN 271455Z AUTO 10SM CLR 29/21 A3014 RMK AO2
 
KASL - Marshall, Texas, USA
Distance from station: ENE 57mi, 92km
Updated: Mon, 27-Jun-2022 9:55am CDT
Clear
Clear
 Wind from NE
Wind: NE 6 mph , 9 km/h
Temperature: 82°F , 28°C
Heat Index: 86°F , 30°C
Dew Point: 70°F , 21°C
Humidity: 66%
Barometer: 30.19 inHg , 1022.4 hPa
Clouds: Clear
Visibility: 10 miles , 16 km
2022/06/27 14:55 KASL 271455Z AUTO 05005KT 10SM CLR 28/21 A3019 RMK AO1 T02780209
KOSA - Mount Pleasant, Texas, USA
Distance from station: NNE 58mi, 93km
Updated: Mon, 27-Jun-2022 9:50am CDT
Overcast
Overcast
 Wind from E
Wind: E 12 mph , 19 km/h
Temperature: 81°F , 27°C
Heat Index: 85°F , 29°C
Dew Point: 72°F , 22°C
Humidity: 74%
Barometer: 30.20 inHg , 1022.7 hPa
Clouds: Overcast
Visibility: 10 miles , 16 km
Cloud details: Overcast 2000 ft
2022/06/27 14:50 KOSA 271450Z AUTO 08010KT 10SM OVC020 27/22 A3020 RMK AO2 T02660218
 
KOCH - Nacogdoches, Texas, USA
Distance from station: SSE 59mi, 95km
Updated: Mon, 27-Jun-2022 9:56am CDT
Clear
Clear
 Wind from NE
Wind: NE 7 mph , 11 km/h
Temperature: 82°F , 28°C
Heat Index: 86°F , 30°C
Dew Point: 70°F , 21°C
Humidity: 66%
Barometer: 30.15 inHg , 1021 hPa
Clouds: Clear
Visibility: 10 miles , 16 km
2022/06/27 14:56 KOCH 271456Z AUTO 04006KT 10SM CLR 28/21 A3015 RMK AO2 SLP210 T02830211 50006
KSLR - Sulphur Springs, Texas, USA
Distance from station: NNW 64mi, 103km
Updated: Mon, 27-Jun-2022 9:55am CDT
Haze, Overcast
Haze, Overcast
 Wind from E
Wind: E 10 mph , 17 km/h, Gust: 17 mph , 28 km/h
Temperature: 81°F , 27°C
Heat Index: 85°F , 29°C
Dew Point: 70°F , 21°C
Humidity: 70%
Barometer: 30.23 inHg , 1023.7 hPa
Summary: Haze
Clouds: Overcast
Visibility: 5 miles , 8 km
Cloud details: Mostly Cloudy 2000 ft
Overcast 2600 ft
2022/06/27 14:55 KSLR 271455Z AUTO 09009G15KT 5SM HZ BKN020 OVC026 27/21 A3023 RMK AO2 T02680211 TSNO
 
KTRL - Terrell, Texas, USA
Distance from station: WNW 66mi, 107km
Updated: Mon, 27-Jun-2022 9:53am CDT
Clear
Clear
 Wind from ENE
Wind: ENE 14 mph , 22 km/h, Gust: 20 mph , 31 km/h
Temperature: 82°F , 28°C
Heat Index: 84°F , 29°C
Dew Point: 66°F , 19°C
Humidity: 58%
Barometer: 30.19 inHg , 1022.4 hPa
Clouds: Clear
Visibility: 10 miles , 16 km
2022/06/27 14:53 KTRL 271453Z AUTO 07012G17KT 10SM CLR 28/19 A3019 RMK AO2 SLP216 T02830189 51012
KCRS - Corsicana, Texas, USA
Distance from station: WSW 70mi, 113km
Updated: Mon, 27-Jun-2022 9:53am CDT
Clear
Clear
 Wind from NNE
Wind: NNE 9 mph , 15 km/h
Temperature: 84°F , 29°C
Heat Index: 86°F , 30°C
Dew Point: 66°F , 19°C
Humidity: 55%
Barometer: 30.17 inHg , 1021.7 hPa
Clouds: Clear
Visibility: 10 miles , 16 km
2022/06/27 14:53 KCRS 271453Z AUTO 03008KT 10SM CLR 29/19 A3017 RMK AO2 SLP210 T02890194 50009
 
KGVT - Greenville/Major, Texas, USA
Distance from station: NW 72mi, 115km
Updated: Mon, 27-Jun-2022 9:55am CDT
Partly Cloudy
Partly Cloudy
 Wind from E
Wind: E 12 mph , 19 km/h
Temperature: 82°F , 28°C
Heat Index: 86°F , 30°C
Dew Point: 70°F , 21°C
Humidity: 66%
Barometer: 30.20 inHg , 1022.7 hPa
Clouds: Partly Cloudy
Visibility: 10 miles , 16 km
Cloud details: Partly Cloudy 2700 ft
Partly Cloudy 3100 ft
2022/06/27 14:55 KGVT 271455Z AUTO 09010KT 050V110 10SM SCT027 SCT031 28/21 A3020 RMK AO2 TSNO

Metar display script from Saratoga-Weather.org